Time;durP1;ratioP1;P1;durP2;ratioP2;P2;SDS_P1;SDS_P2;PMS_P1;PMS_P2;Temp;Humidity;BMP_temperature;BMP_pressure;BME280_temperature;BME280_humidity;BME280_pressure;Samples;Min_cycle;Max_cycle;Signal;HPM_P1;HPM_P2
2023/08/05 00:01:47;;;;;;;6.80;3.70;;;13.60;99.90;;;;;;5032327;28;20521;-52
2023/08/05 00:04:13;;;;;;;5.97;4.23;;;13.60;99.90;;;;;;5032705;28;21003;-51
2023/08/05 00:06:40;;;;;;;10.03;4.17;;;13.60;99.90;;;;;;5033518;28;20466;-52
2023/08/05 00:09:07;;;;;;;4.20;3.80;;;13.50;99.90;;;;;;5032063;28;20960;-51
2023/08/05 00:11:34;;;;;;;4.77;4.27;;;13.60;99.90;;;;;;5033698;28;20471;-51
2023/08/05 00:14:00;;;;;;;7.20;4.33;;;13.50;99.90;;;;;;5031192;28;20956;-51
2023/08/05 00:16:27;;;;;;;6.53;4.00;;;13.50;99.90;;;;;;5032823;28;20887;-51
2023/08/05 00:18:53;;;;;;;4.70;4.27;;;13.50;99.90;;;;;;5035317;28;20482;-51
2023/08/05 00:21:20;;;;;;;6.10;4.40;;;13.50;99.90;;;;;;5041156;28;20490;-51
2023/08/05 00:23:46;;;;;;;7.87;4.50;;;13.40;99.90;;;;;;5039991;28;20988;-55
2023/08/05 00:26:16;;;;;;;4.70;4.10;;;13.40;99.90;;;;;;5039580;28;20513;-52
2023/08/05 00:28:42;;;;;;;5.20;4.13;;;13.40;99.90;;;;;;5039977;28;20453;-51
2023/08/05 00:31:09;;;;;;;5.07;4.57;;;13.40;99.90;;;;;;5035055;28;20486;-52
2023/08/05 00:33:36;;;;;;;6.10;4.33;;;13.40;99.90;;;;;;5039010;28;20683;-53
2023/08/05 00:36:02;;;;;;;4.17;3.87;;;13.40;99.90;;;;;;5037201;28;20548;-51
2023/08/05 00:38:29;;;;;;;9.37;5.00;;;13.40;99.90;;;;;;5032633;28;20451;-51
2023/08/05 00:40:55;;;;;;;6.33;4.40;;;13.30;99.90;;;;;;5032517;28;20518;-50
2023/08/05 00:43:23;;;;;;;12.20;4.70;;;13.40;99.90;;;;;;5031028;28;20509;-52
2023/08/05 00:45:50;;;;;;;9.10;4.30;;;13.40;99.90;;;;;;5030769;28;20905;-52
2023/08/05 00:48:17;;;;;;;6.43;4.90;;;13.30;99.90;;;;;;5030729;28;20497;-51
2023/08/05 00:50:43;;;;;;;5.33;4.00;;;13.30;99.90;;;;;;5031269;28;20999;-51
2023/08/05 00:53:10;;;;;;;5.13;4.30;;;13.20;99.90;;;;;;5032314;28;20522;-52
2023/08/05 00:55:37;;;;;;;4.73;4.10;;;13.20;99.90;;;;;;5031249;28;20509;-50
2023/08/05 00:58:04;;;;;;;5.20;3.97;;;13.30;99.90;;;;;;5028021;28;20505;-51
2023/08/05 01:00:31;;;;;;;6.67;4.00;;;13.20;99.90;;;;;;5030557;28;20965;-52
2023/08/05 01:02:58;;;;;;;4.93;4.53;;;13.30;99.90;;;;;;5031852;28;20877;-51
2023/08/05 01:05:25;;;;;;;5.43;4.00;;;13.20;99.90;;;;;;5030191;28;20585;-51
2023/08/05 01:07:52;;;;;;;4.27;3.90;;;13.10;99.90;;;;;;5032052;28;20489;-57
2023/08/05 01:10:18;;;;;;;4.30;3.90;;;13.10;99.90;;;;;;5031278;28;20494;-52
2023/08/05 01:12:45;;;;;;;6.73;4.63;;;13.10;99.90;;;;;;5031429;28;20490;-52
2023/08/05 01:15:11;;;;;;;5.60;4.40;;;13.10;99.90;;;;;;5030354;28;20510;-53
2023/08/05 01:17:40;;;;;;;9.00;4.67;;;13.00;99.90;;;;;;5030447;28;20542;-50
2023/08/05 01:20:09;;;;;;;4.60;4.23;;;13.10;99.90;;;;;;5032173;28;20455;-52
2023/08/05 01:22:42;;;;;;;4.60;4.30;;;13.00;99.90;;;;;;5029802;28;20521;-52
2023/08/05 01:25:24;;;;;;;6.73;4.53;;;13.10;99.90;;;;;;5028829;28;20510;-51
2023/08/05 01:27:53;;;;;;;4.40;3.90;;;13.00;99.90;;;;;;5027806;28;20462;-51
2023/08/05 01:30:20;;;;;;;4.63;4.17;;;13.00;99.90;;;;;;5029026;28;20539;-51
2023/08/05 01:32:48;;;;;;;4.93;4.37;;;12.90;99.90;;;;;;5027190;28;20490;-51
2023/08/05 01:35:15;;;;;;;5.47;4.97;;;12.90;99.90;;;;;;5030465;28;20503;-51
2023/08/05 01:37:41;;;;;;;5.83;4.00;;;12.90;99.90;;;;;;5028875;28;20498;-51
2023/08/05 01:40:08;;;;;;;5.00;4.60;;;12.90;99.90;;;;;;5030221;28;20561;-52
2023/08/05 01:42:36;;;;;;;4.90;4.40;;;12.90;99.90;;;;;;5031616;28;20521;-55
2023/08/05 01:45:03;;;;;;;5.20;4.70;;;12.80;99.90;;;;;;5026709;28;20593;-51
2023/08/05 01:47:30;;;;;;;5.23;4.00;;;12.80;99.90;;;;;;5031509;28;20443;-49
2023/08/05 01:49:56;;;;;;;9.20;4.30;;;12.80;99.90;;;;;;5031548;28;20478;-51
2023/08/05 01:52:23;;;;;;;4.17;3.80;;;12.80;99.90;;;;;;5031916;28;20478;-51
2023/08/05 01:54:49;;;;;;;4.70;4.30;;;12.80;99.90;;;;;;5029032;28;21015;-51
2023/08/05 01:57:16;;;;;;;4.70;4.20;;;12.70;99.90;;;;;;5031404;28;20487;-51
2023/08/05 01:59:44;;;;;;;5.60;4.50;;;12.70;99.90;;;;;;5030606;28;20550;-51
2023/08/05 02:02:10;;;;;;;4.67;4.27;;;12.70;99.90;;;;;;5029641;28;20578;-52
2023/08/05 02:04:37;;;;;;;4.80;4.40;;;12.70;99.90;;;;;;5027934;28;20451;-52
2023/08/05 02:07:04;;;;;;;4.57;4.17;;;12.70;99.90;;;;;;5031216;28;20528;-50
2023/08/05 02:09:31;;;;;;;4.80;3.77;;;12.80;99.90;;;;;;5031431;28;20455;-52
2023/08/05 02:11:57;;;;;;;5.73;4.50;;;12.70;99.90;;;;;;5030138;28;20514;-51
2023/08/05 02:14:24;;;;;;;4.13;3.70;;;12.70;99.90;;;;;;5028073;28;20554;-50
2023/08/05 02:16:51;;;;;;;6.43;4.27;;;12.70;99.90;;;;;;5031162;28;20467;-51
2023/08/05 02:19:18;;;;;;;5.40;3.30;;;12.70;99.90;;;;;;5031567;28;20475;-51
2023/08/05 02:21:45;;;;;;;5.23;3.80;;;12.70;99.90;;;;;;5031397;28;20529;-51
2023/08/05 02:24:11;;;;;;;6.03;4.13;;;12.60;99.90;;;;;;5030753;28;20471;-51
2023/08/05 02:26:38;;;;;;;10.40;4.20;;;12.60;99.90;;;;;;5031280;28;20471;-51
2023/08/05 02:29:05;;;;;;;5.97;4.00;;;12.60;99.90;;;;;;5029224;28;20952;-51
2023/08/05 02:31:31;;;;;;;3.80;3.40;;;12.60;99.90;;;;;;5029590;28;20463;-50
2023/08/05 02:33:59;;;;;;;4.13;3.70;;;12.60;99.90;;;;;;5028549;28;20451;-50
2023/08/05 02:36:26;;;;;;;4.77;3.63;;;12.50;99.90;;;;;;5032470;28;20466;-51
2023/08/05 02:38:52;;;;;;;6.63;4.00;;;12.50;99.90;;;;;;5034602;28;20450;-51
2023/08/05 02:41:19;;;;;;;6.40;4.00;;;12.60;99.90;;;;;;5034647;28;20881;-51
2023/08/05 02:43:46;;;;;;;8.30;4.30;;;12.70;99.90;;;;;;5030715;28;21066;-53
2023/08/05 02:46:12;;;;;;;4.00;3.63;;;12.60;99.90;;;;;;5028795;28;20501;-50
2023/08/05 02:48:39;;;;;;;5.37;3.20;;;12.60;99.90;;;;;;5031456;28;20497;-50
2023/08/05 02:51:07;;;;;;;4.70;3.90;;;12.50;99.90;;;;;;5034671;28;21029;-50
2023/08/05 02:53:33;;;;;;;3.93;3.50;;;12.50;99.90;;;;;;5034060;28;20450;-52
2023/08/05 02:56:00;;;;;;;6.40;3.73;;;12.50;99.90;;;;;;5033739;28;20744;-52
2023/08/05 02:58:27;;;;;;;5.90;4.27;;;12.50;99.90;;;;;;5034194;28;20501;-51
2023/08/05 03:00:54;;;;;;;5.20;3.50;;;12.50;99.90;;;;;;5033036;28;20894;-52
2023/08/05 03:03:20;;;;;;;4.67;3.40;;;12.50;99.90;;;;;;5030636;28;20578;-52
2023/08/05 03:05:47;;;;;;;5.53;3.60;;;12.50;99.90;;;;;;5032269;28;21015;-52
2023/08/05 03:08:15;;;;;;;6.30;3.70;;;12.40;99.90;;;;;;5032580;28;20498;-53
2023/08/05 03:10:42;;;;;;;6.23;3.90;;;12.40;99.90;;;;;;5033827;28;21044;-51
2023/08/05 03:13:08;;;;;;;10.17;4.07;;;12.50;99.90;;;;;;5025413;28;21016;-53
2023/08/05 03:15:35;;;;;;;10.00;3.27;;;12.50;99.90;;;;;;5029809;28;20525;-52
2023/08/05 03:18:02;;;;;;;3.77;3.47;;;12.60;99.90;;;;;;5032524;28;21051;-53
2023/08/05 03:20:30;;;;;;;7.00;3.37;;;12.60;99.90;;;;;;5033558;28;20491;-51
2023/08/05 03:22:57;;;;;;;4.90;3.43;;;12.60;99.90;;;;;;5034036;28;21176;-52
2023/08/05 03:25:27;;;;;;;3.57;3.27;;;12.70;99.90;;;;;;5032240;28;20502;-52
2023/08/05 03:27:53;;;;;;;3.40;3.10;;;12.70;99.90;;;;;;5030677;28;20518;-53
2023/08/05 03:30:20;;;;;;;3.47;3.17;;;12.70;99.90;;;;;;5033878;28;20474;-52
2023/08/05 03:32:48;;;;;;;5.13;3.47;;;12.70;99.90;;;;;;5032382;28;20826;-52
2023/08/05 03:35:15;;;;;;;4.20;3.37;;;12.80;99.90;;;;;;5032933;28;20842;-53
2023/08/05 03:37:41;;;;;;;3.10;2.90;;;12.80;99.90;;;;;;5033956;28;21012;-53
2023/08/05 03:40:09;;;;;;;6.83;3.20;;;12.80;99.90;;;;;;5032131;28;20491;-53
2023/08/05 03:42:37;;;;;;;3.40;2.77;;;12.80;99.90;;;;;;5033259;28;20562;-53
2023/08/05 03:45:04;;;;;;;4.83;3.57;;;12.80;99.90;;;;;;5031572;28;20477;-53
2023/08/05 03:47:30;;;;;;;7.50;3.33;;;12.80;99.90;;;;;;5031673;28;20521;-53
2023/08/05 03:49:57;;;;;;;6.63;3.70;;;12.70;99.90;;;;;;5033445;28;20471;-52
2023/08/05 03:52:26;;;;;;;14.50;3.20;;;12.80;99.90;;;;;;5033435;28;20597;-51
2023/08/05 03:54:52;;;;;;;6.03;3.60;;;12.70;99.90;;;;;;5031445;28;20463;-54
2023/08/05 03:57:19;;;;;;;7.00;3.90;;;12.80;99.90;;;;;;5033425;28;20486;-52
2023/08/05 03:59:49;;;;;;;4.23;3.17;;;12.80;99.90;;;;;;5033321;28;20518;-53
2023/08/05 04:02:16;;;;;;;3.80;3.40;;;12.70;99.90;;;;;;5032736;28;20489;-52
2023/08/05 04:04:43;;;;;;;3.20;2.90;;;12.70;99.90;;;;;;5032524;28;20451;-52
2023/08/05 04:07:10;;;;;;;3.33;3.03;;;12.80;99.90;;;;;;5031765;28;20504;-53
2023/08/05 04:09:36;;;;;;;4.33;2.97;;;12.70;99.90;;;;;;5031844;28;20964;-53
2023/08/05 04:12:05;;;;;;;9.33;3.53;;;12.70;99.90;;;;;;5033251;28;20446;-52
2023/08/05 04:14:31;;;;;;;3.87;3.30;;;12.80;99.90;;;;;;5032368;28;20526;-53
2023/08/05 04:17:02;;;;;;;5.70;3.00;;;12.80;99.90;;;;;;5031681;28;20514;-52
2023/08/05 04:19:29;;;;;;;9.00;3.27;;;12.80;99.90;;;;;;5032655;28;20493;-53
2023/08/05 04:21:55;;;;;;;3.70;2.47;;;12.80;99.90;;;;;;5029515;28;20484;-52
2023/08/05 04:24:24;;;;;;;4.30;3.03;;;12.80;99.90;;;;;;5029566;28;20498;-52
2023/08/05 04:26:51;;;;;;;5.50;3.87;;;12.80;99.90;;;;;;5030957;28;20509;-53
2023/08/05 04:29:18;;;;;;;6.50;3.70;;;12.90;99.90;;;;;;5030537;28;20458;-53
2023/08/05 04:31:45;;;;;;;4.10;3.33;;;12.90;99.90;;;;;;5032454;28;20472;-52
2023/08/05 04:34:13;;;;;;;4.60;3.03;;;13.00;99.90;;;;;;5030560;28;20459;-53
2023/08/05 04:36:39;;;;;;;11.27;3.50;;;13.00;99.90;;;;;;5032738;28;20498;-53
2023/08/05 04:39:06;;;;;;;3.87;3.27;;;13.10;99.90;;;;;;5031177;28;20495;-53
2023/08/05 04:41:33;;;;;;;5.23;3.63;;;13.10;99.90;;;;;;5030622;28;20459;-53
2023/08/05 04:43:59;;;;;;;3.53;3.10;;;13.20;99.90;;;;;;5030146;28;20506;-53
2023/08/05 04:46:26;;;;;;;6.00;3.93;;;13.20;99.90;;;;;;5031465;28;20490;-53
2023/08/05 04:48:52;;;;;;;9.23;3.00;;;13.30;99.90;;;;;;5029389;28;20550;-51
2023/08/05 04:51:20;;;;;;;4.60;3.23;;;13.30;99.90;;;;;;5029836;28;20991;-53
2023/08/05 04:53:47;;;;;;;3.80;3.00;;;13.40;99.90;;;;;;5027606;28;20489;-53
2023/08/05 04:56:13;;;;;;;6.23;3.50;;;13.40;99.90;;;;;;5028623;28;20519;-53
2023/08/05 04:58:40;;;;;;;4.23;3.47;;;13.60;99.90;;;;;;5030487;28;20892;-52
2023/08/05 05:01:06;;;;;;;3.80;3.50;;;13.60;99.90;;;;;;5030354;28;20480;-52
2023/08/05 05:03:33;;;;;;;5.30;3.53;;;13.70;99.90;;;;;;5027813;28;20525;-54
2023/08/05 05:06:00;;;;;;;4.20;3.40;;;13.70;99.90;;;;;;5029383;28;20549;-52
2023/08/05 05:08:30;;;;;;;5.47;3.10;;;13.80;99.90;;;;;;5030786;28;20450;-53
2023/08/05 05:10:57;;;;;;;10.03;3.90;;;13.80;99.90;;;;;;5030251;28;20600;-52
2023/08/05 05:13:23;;;;;;;4.73;3.67;;;13.90;99.90;;;;;;5026588;28;20569;-53
2023/08/05 05:15:52;;;;;;;5.30;3.27;;;13.90;99.90;;;;;;5028492;28;20510;-52
2023/08/05 05:18:19;;;;;;;7.47;3.67;;;13.90;99.90;;;;;;5028579;28;20987;-54
2023/08/05 05:20:49;;;;;;;7.33;3.30;;;14.00;99.90;;;;;;5030841;28;20578;-52
2023/08/05 05:23:16;;;;;;;5.77;3.27;;;14.10;99.90;;;;;;5031942;28;20494;-52
2023/08/05 05:25:45;;;;;;;8.10;3.70;;;14.20;99.90;;;;;;5031137;28;20570;-52
2023/08/05 05:28:11;;;;;;;6.83;3.27;;;14.20;99.90;;;;;;5031742;28;20478;-53
2023/08/05 05:30:38;;;;;;;7.20;2.80;;;14.20;99.90;;;;;;5030157;28;20972;-53
2023/08/05 05:33:05;;;;;;;5.60;3.63;;;14.30;99.90;;;;;;5030802;28;20976;-52
2023/08/05 05:35:32;;;;;;;29.63;3.50;;;14.30;99.90;;;;;;5031241;28;20462;-52
2023/08/05 05:37:58;;;;;;;5.27;3.60;;;14.40;99.90;;;;;;5030683;28;20499;-53
2023/08/05 05:40:25;;;;;;;4.90;2.80;;;14.40;99.90;;;;;;5031423;28;20928;-52
2023/08/05 05:42:53;;;;;;;4.80;3.17;;;14.50;99.90;;;;;;5031698;28;20521;-53
2023/08/05 05:45:21;;;;;;;3.97;3.47;;;14.50;99.90;;;;;;5029155;28;20621;-53
2023/08/05 05:47:48;;;;;;;11.20;3.30;;;14.50;99.90;;;;;;5030377;28;20471;-53
2023/08/05 05:50:16;;;;;;;6.33;3.70;;;14.60;99.90;;;;;;5031738;28;20447;-53
2023/08/05 05:52:42;;;;;;;3.90;3.03;;;14.60;99.90;;;;;;5031652;28;20451;-52
2023/08/05 05:55:09;;;;;;;8.23;4.37;;;14.70;99.90;;;;;;5027756;28;20520;-54
2023/08/05 05:57:36;;;;;;;6.57;2.90;;;14.80;99.90;;;;;;5031580;28;20439;-53
2023/08/05 06:00:05;;;;;;;6.27;3.60;;;14.80;99.90;;;;;;5030857;28;20876;-53
2023/08/05 06:02:32;;;;;;;4.27;2.80;;;14.90;99.90;;;;;;5029223;28;20510;-52
2023/08/05 06:04:58;;;;;;;7.20;3.60;;;15.00;99.90;;;;;;5030782;28;20874;-54
2023/08/05 06:07:25;;;;;;;11.87;3.67;;;15.10;99.90;;;;;;5031535;28;20470;-52
2023/08/05 06:09:51;;;;;;;9.73;3.50;;;15.20;99.90;;;;;;5030817;28;20530;-53
2023/08/05 06:12:18;;;;;;;11.10;2.97;;;15.20;99.90;;;;;;5033590;28;20498;-52
2023/08/05 06:14:45;;;;;;;5.90;3.50;;;15.30;99.90;;;;;;5033409;28;20835;-52
2023/08/05 06:17:12;;;;;;;8.43;3.80;;;15.40;99.90;;;;;;5033796;28;21091;-52
2023/08/05 06:19:39;;;;;;;6.83;3.53;;;15.50;99.90;;;;;;5029709;28;20495;-52
2023/08/05 06:22:06;;;;;;;8.97;3.73;;;15.50;99.90;;;;;;5032090;28;20993;-53
2023/08/05 06:24:33;;;;;;;11.30;3.60;;;15.50;99.90;;;;;;5032286;28;20518;-52
2023/08/05 06:26:59;;;;;;;3.40;3.10;;;15.60;99.90;;;;;;5032309;28;20521;-53
2023/08/05 06:29:26;;;;;;;6.23;3.40;;;15.70;99.90;;;;;;5032312;28;20513;-52
2023/08/05 06:31:52;;;;;;;12.90;3.90;;;15.70;99.90;;;;;;5034833;28;20478;-53
2023/08/05 06:34:22;;;;;;;7.80;3.07;;;15.80;99.90;;;;;;5033993;28;20466;-53
2023/08/05 06:36:48;;;;;;;4.17;3.13;;;16.00;99.90;;;;;;5032905;28;20544;-53
2023/08/05 06:39:15;;;;;;;5.67;3.40;;;16.00;99.90;;;;;;5034704;28;20496;-53
2023/08/05 06:41:41;;;;;;;5.50;3.47;;;16.20;99.90;;;;;;5034342;28;20435;-52
2023/08/05 06:44:08;;;;;;;7.00;3.40;;;16.20;99.90;;;;;;5031114;28;20923;-52
2023/08/05 06:46:33;;;;;;;4.97;3.37;;;16.30;99.90;;;;;;5033913;28;20506;-53
2023/08/05 06:49:00;;;;;;;5.10;3.40;;;16.40;99.90;;;;;;5033859;28;20497;-53
2023/08/05 06:51:28;;;;;;;7.10;3.10;;;16.40;99.90;;;;;;5034449;28;20231;-53
2023/08/05 06:53:54;;;;;;;10.53;3.33;;;16.50;99.90;;;;;;5032127;28;20458;-52
2023/08/05 06:56:20;;;;;;;5.23;3.27;;;16.60;99.90;;;;;;5034149;28;20566;-54
2023/08/05 06:58:47;;;;;;;6.73;3.37;;;16.60;99.90;;;;;;5030894;28;20562;-52
2023/08/05 07:01:15;;;;;;;14.63;3.40;;;16.70;99.90;;;;;;5034013;28;20819;-52
2023/08/05 07:03:44;;;;;;;10.47;2.77;;;16.70;99.90;;;;;;5033551;28;20489;-54
2023/08/05 07:06:10;;;;;;;5.83;3.20;;;16.80;99.90;;;;;;5034122;28;20498;-53
2023/08/05 07:08:38;;;;;;;5.20;2.80;;;16.90;99.90;;;;;;5033277;28;20465;-51
2023/08/05 07:11:05;;;;;;;8.80;2.90;;;17.00;99.90;;;;;;5037550;28;20467;-53
2023/08/05 07:13:31;;;;;;;6.13;2.80;;;17.00;99.90;;;;;;5034196;28;20462;-52
2023/08/05 07:16:01;;;;;;;6.20;3.00;;;17.10;99.90;;;;;;5036381;28;20489;-51
2023/08/05 07:18:28;;;;;;;6.80;3.13;;;17.20;99.90;;;;;;5035745;28;20434;-53
2023/08/05 07:20:55;;;;;;;6.00;2.60;;;17.20;99.90;;;;;;5053891;28;20442;-53
2023/08/05 07:23:22;;;;;;;5.70;3.10;;;17.30;20.10;;;;;;5052999;28;20489;-53
2023/08/05 07:25:50;;;;;;;7.37;3.10;;;17.30;29.60;;;;;;5042942;28;20505;-52
2023/08/05 07:28:16;;;;;;;9.20;4.00;;;17.30;25.10;;;;;;5032021;28;20491;-53
2023/08/05 07:30:43;;;;;;;5.87;3.90;;;17.30;31.80;;;;;;5031343;28;20499;-53
2023/08/05 07:33:12;;;;;;;8.83;2.70;;;17.30;44.10;;;;;;5032582;28;20494;-52
2023/08/05 07:35:39;;;;;;;16.27;3.07;;;17.30;38.90;;;;;;5032853;28;20524;-54
2023/08/05 07:38:09;;;;;;;7.60;3.10;;;17.40;41.70;;;;;;5033925;28;20474;-52
2023/08/05 07:40:36;;;;;;;6.20;2.73;;;17.30;49.20;;;;;;5032392;28;20516;-52
2023/08/05 07:43:05;;;;;;;8.13;3.00;;;17.40;63.20;;;;;;5030682;28;20505;-52
2023/08/05 07:45:34;;;;;;;9.70;2.60;;;17.30;69.30;;;;;;5031637;28;21043;-53
2023/08/05 07:48:00;;;;;;;7.03;2.40;;;17.40;65.10;;;;;;5031887;28;21177;-53
2023/08/05 07:50:27;;;;;;;7.70;2.80;;;17.50;62.70;;;;;;5032062;28;20840;-52
2023/08/05 07:52:54;;;;;;;5.63;2.33;;;17.50;77.00;;;;;;5033607;28;20479;-52
2023/08/05 07:55:22;;;;;;;5.67;2.97;;;17.50;79.80;;;;;;5032529;28;20878;-52
2023/08/05 07:57:48;;;;;;;7.60;2.80;;;17.50;83.70;;;;;;5032380;28;20541;-53
2023/08/05 08:00:16;;;;;;;14.20;3.07;;;17.60;81.80;;;;;;5032676;28;20508;-52
2023/08/05 08:02:43;;;;;;;14.10;2.67;;;17.70;72.80;;;;;;5017839;28;20904;-53
2023/08/05 08:05:13;;;;;;;6.13;2.73;;;17.70;80.30;;;;;;5031777;28;20501;-52
2023/08/05 08:07:43;;;;;;;10.30;2.60;;;17.80;88.50;;;;;;5031881;28;20458;-53
2023/08/05 08:10:10;;;;;;;8.20;3.43;;;17.90;90.60;;;;;;5014719;28;20439;-52
2023/08/05 08:12:37;;;;;;;5.73;3.00;;;17.90;95.00;;;;;;5032185;28;21043;-52
2023/08/05 08:15:04;;;;;;;15.63;2.87;;;18.00;91.00;;;;;;5031583;28;20469;-53
2023/08/05 08:17:32;;;;;;;12.20;3.20;;;18.00;99.70;;;;;;5032365;28;20864;-53
2023/08/05 08:19:59;;;;;;;12.20;2.87;;;18.00;99.90;;;;;;5032773;28;20477;-52
2023/08/05 08:22:25;;;;;;;8.70;2.77;;;18.00;95.00;;;;;;5031277;28;20550;-53
2023/08/05 08:24:53;;;;;;;10.23;2.73;;;18.00;97.40;;;;;;5030158;28;20573;-52
2023/08/05 08:27:19;;;;;;;6.80;3.00;;;18.10;77.50;;;;;;5030783;28;20463;-50
2023/08/05 08:29:46;;;;;;;17.67;3.43;;;18.30;97.90;;;;;;5032464;28;20571;-54
2023/08/05 08:32:12;;;;;;;5.80;3.20;;;18.40;99.10;;;;;;5032381;28;20542;-51
2023/08/05 08:34:40;;;;;;;12.90;2.80;;;18.50;99.90;;;;;;5030689;28;20869;-52
2023/08/05 08:37:07;;;;;;;5.10;2.67;;;18.60;99.90;;;;;;5030834;28;21101;-53
2023/08/05 08:39:33;;;;;;;6.87;2.50;;;18.50;99.90;;;;;;5024046;28;21010;-51
2023/08/05 08:42:00;;;;;;;7.90;3.30;;;18.60;99.90;;;;;;5027549;28;20929;-53
2023/08/05 08:44:27;;;;;;;9.47;3.00;;;18.80;99.90;;;;;;5030638;28;20478;-53
2023/08/05 08:46:54;;;;;;;8.73;3.10;;;18.80;99.90;;;;;;5031389;28;20488;-53
2023/08/05 08:49:21;;;;;;;12.20;2.97;;;18.70;99.90;;;;;;5026650;28;20498;-53
2023/08/05 08:51:49;;;;;;;10.47;2.70;;;18.80;99.90;;;;;;5028463;28;20490;-52
2023/08/05 08:54:19;;;;;;;14.50;3.40;;;18.80;99.90;;;;;;5031169;28;20477;-52
2023/08/05 08:56:46;;;;;;;5.50;2.60;;;19.00;99.90;;;;;;5070965;22;21097;-54
2023/08/05 08:59:12;;;;;;;6.40;2.53;;;19.10;99.90;;;;;;5062155;28;21091;-54
2023/08/05 09:01:40;;;;;;;6.70;2.50;;;18.90;99.90;;;;;;5051924;28;20981;-52
2023/08/05 09:04:08;;;;;;;5.57;2.70;;;19.00;99.90;;;;;;5053138;28;20488;-54
2023/08/05 09:06:38;;;;;;;13.63;2.27;;;19.00;99.90;;;;;;5070904;28;20546;-53
2023/08/05 09:09:05;;;;;;;9.57;2.60;;;19.00;99.90;;;;;;5071946;28;20473;-53
2023/08/05 09:11:32;;;;;;;9.33;2.60;;;19.10;99.90;;;;;;5070775;28;20464;-55
2023/08/05 09:13:59;;;;;;;7.00;2.13;;;19.10;99.90;;;;;;5063651;28;20577;-53
2023/08/05 09:16:26;;;;;;;6.77;2.23;;;19.10;99.90;;;;;;5051772;28;20997;-53
2023/08/05 09:18:53;;;;;;;5.43;2.60;;;19.30;99.90;;;;;;5057281;28;20488;-53
2023/08/05 09:21:22;;;;;;;8.53;2.20;;;19.40;99.90;;;;;;5066270;28;20492;-54
2023/08/05 09:23:49;;;;;;;3.33;2.10;;;19.50;99.90;;;;;;5071115;28;20517;-53
2023/08/05 09:26:27;;;;;;;5.63;1.97;;;19.50;99.90;;;;;;5070537;28;20883;-54
2023/08/05 09:28:53;;;;;;;11.83;2.23;;;19.60;99.90;;;;;;5059384;28;20830;-53
2023/08/05 09:31:20;;;;;;;8.17;2.33;;;19.60;99.90;;;;;;5058651;28;20885;-52
2023/08/05 09:33:47;;;;;;;3.57;2.47;;;19.60;99.90;;;;;;5063992;28;20572;-54
2023/08/05 09:36:15;;;;;;;13.13;2.57;;;19.70;99.90;;;;;;5071582;28;20491;-53
2023/08/05 09:38:41;;;;;;;6.80;2.20;;;19.40;99.90;;;;;;5071540;28;20849;-53
2023/08/05 09:41:09;;;;;;;4.37;2.23;;;19.30;99.90;;;;;;5070789;28;20500;-53
2023/08/05 09:43:40;;;;;;;6.60;2.10;;;19.30;99.90;;;;;;5060574;28;20433;-54
2023/08/05 09:46:11;;;;;;;4.27;2.60;;;19.50;99.90;;;;;;5074225;28;20464;-53
2023/08/05 09:48:41;;;;;;;3.77;2.13;;;19.50;99.90;;;;;;5074216;28;20969;-53
2023/08/05 09:51:08;;;;;;;7.73;2.50;;;19.50;99.90;;;;;;5075616;28;20441;-54
2023/08/05 09:53:38;;;;;;;4.33;2.30;;;19.50;99.90;;;;;;5064927;28;20964;-53
2023/08/05 09:56:06;;;;;;;3.70;2.30;;;19.50;99.90;;;;;;5074835;28;20520;-53
2023/08/05 09:58:35;;;;;;;5.50;1.80;;;19.50;99.90;;;;;;5075354;28;20461;-53
2023/08/05 10:01:07;;;;;;;9.00;3.60;;;19.70;99.90;;;;;;5074072;28;20890;-54
2023/08/05 10:03:35;;;;;;;4.03;1.77;;;20.10;81.70;;;;;;5073508;28;20903;-53
2023/08/05 10:06:04;;;;;;;3.77;1.70;;;20.20;40.30;;;;;;5074213;28;20460;-54
2023/08/05 10:08:32;;;;;;;7.83;2.30;;;20.20;43.50;;;;;;5059990;28;20453;-54
2023/08/05 10:11:00;;;;;;;5.97;2.10;;;20.30;45.60;;;;;;5068862;28;20457;-54
2023/08/05 10:13:27;;;;;;;5.97;2.17;;;20.20;52.50;;;;;;5074885;28;20510;-53
2023/08/05 10:15:55;;;;;;;6.20;2.17;;;20.40;61.50;;;;;;5072270;28;20916;-52
2023/08/05 10:18:26;;;;;;;1.70;1.60;;;20.40;53.00;;;;;;5072160;28;20493;-54
2023/08/05 10:20:54;;;;;;;3.23;2.20;;;20.60;40.30;;;;;;5072767;28;20492;-53
2023/08/05 10:23:25;;;;;;;8.20;2.73;;;20.60;41.90;;;;;;5071626;28;20468;-54
2023/08/05 10:25:58;;;;;;;2.80;2.07;;;20.80;40.30;;;;;;5069310;28;20580;-52
2023/08/05 10:28:44;;;;;;;3.37;2.10;;;20.70;46.50;;;;;;5069865;28;20481;-54
2023/08/05 10:31:28;;;;;;;7.60;2.30;;;20.50;41.50;;;;;;5069029;28;20492;-53
2023/08/05 10:34:12;;;;;;;8.53;2.10;;;20.00;42.50;;;;;;5067725;28;20481;-53
2023/08/05 10:36:43;;;;;;;4.63;1.90;;;20.00;99.90;;;;;;5070182;28;20480;-53
2023/08/05 10:39:43;;;;;;;3.67;2.07;;;20.10;80.50;;;;;;5068850;28;21458;-52
2023/08/05 10:42:20;;;;;;;14.03;2.80;;;20.20;22.20;;;;;;5070409;28;20555;-53
2023/08/05 10:44:49;;;;;;;6.50;2.60;;;20.40;40.00;;;;;;5070661;28;20640;-54
2023/08/05 10:47:20;;;;;;;5.80;2.33;;;20.50;38.50;;;;;;5068972;28;20571;-54
2023/08/05 10:49:50;;;;;;;4.40;2.03;;;20.40;40.40;;;;;;5069182;28;20457;-54
2023/08/05 10:52:20;;;;;;;6.87;3.17;;;20.50;40.30;;;;;;5070636;28;20546;-52
2023/08/05 10:54:47;;;;;;;19.33;2.23;;;20.90;46.40;;;;;;5072035;28;20506;-54
2023/08/05 10:57:29;;;;;;;5.13;2.30;;;21.50;52.50;;;;;;5067217;28;20494;-55
2023/08/05 11:00:00;;;;;;;7.80;2.07;;;22.00;81.30;;;;;;5073562;28;20988;-53
2023/08/05 11:02:26;;;;;;;5.40;1.97;;;22.20;84.80;;;;;;5074461;28;20437;-52
2023/08/05 11:05:06;;;;;;;4.63;2.03;;;22.00;99.90;;;;;;5073525;28;20530;-53
2023/08/05 11:07:34;;;;;;;7.03;2.60;;;22.20;97.70;;;;;;5065247;28;20485;-53
2023/08/05 11:10:01;;;;;;;7.43;2.27;;;22.30;99.90;;;;;;5070650;28;20500;-54
2023/08/05 11:12:29;;;;;;;7.23;2.30;;;22.30;99.90;;;;;;5064802;28;20518;-53
2023/08/05 11:14:56;;;;;;;7.30;2.23;;;21.80;99.90;;;;;;5062124;28;20449;-53
2023/08/05 11:17:22;;;;;;;4.30;2.07;;;21.40;89.90;;;;;;5064369;28;20515;-52
2023/08/05 11:19:52;;;;;;;8.03;2.20;;;21.90;92.00;;;;;;5069631;28;20887;-52
2023/08/05 11:22:24;;;;;;;4.13;2.00;;;22.00;99.90;;;;;;5069562;28;20449;-52
2023/08/05 11:24:56;;;;;;;7.47;1.80;;;21.80;99.90;;;;;;5069521;28;20986;-52
2023/08/05 11:27:30;;;;;;;9.03;2.20;;;21.60;87.10;;;;;;5067793;28;20485;-53
2023/08/05 11:29:56;;;;;;;8.20;2.10;;;21.40;99.90;;;;;;5066747;28;20468;-52
2023/08/05 11:32:23;;;;;;;5.10;2.17;;;21.50;80.90;;;;;;5069903;28;20485;-52
2023/08/05 11:34:50;;;;;;;2.80;1.87;;;21.60;98.80;;;;;;5066348;28;20491;-52
2023/08/05 11:37:17;;;;;;;8.13;2.27;;;21.30;80.60;;;;;;5069784;28;20487;-54
2023/08/05 11:39:45;;;;;;;5.00;2.03;;;21.50;79.60;;;;;;5066369;28;20573;-53
2023/08/05 11:42:12;;;;;;;4.80;2.27;;;21.40;88.70;;;;;;5068263;28;20453;-55
2023/08/05 11:44:38;;;;;;;4.33;2.43;;;21.30;87.40;;;;;;5070269;28;20580;-54
2023/08/05 11:47:05;;;;;;;3.57;1.93;;;21.30;71.80;;;;;;5067817;28;20520;-55
2023/08/05 11:49:31;;;;;;;3.53;1.70;;;21.30;73.60;;;;;;5069128;28;20488;-54
2023/08/05 11:51:58;;;;;;;5.43;2.13;;;21.20;86.40;;;;;;5064955;28;20530;-53
2023/08/05 11:54:26;;;;;;;5.27;2.00;;;21.30;82.40;;;;;;5069192;28;20549;-53
2023/08/05 11:56:54;;;;;;;6.20;2.10;;;21.30;85.80;;;;;;5064309;28;20509;-52
2023/08/05 11:59:36;;;;;;;5.03;2.30;;;21.40;86.80;;;;;;5070452;28;20484;-53
2023/08/05 12:02:04;;;;;;;5.37;2.20;;;21.40;99.90;;;;;;5067891;28;20523;-53
2023/08/05 12:04:30;;;;;;;3.13;1.97;;;21.40;99.90;;;;;;5067234;28;20513;-53
2023/08/05 12:06:57;;;;;;;3.43;2.07;;;21.30;99.90;;;;;;5062719;28;20538;-53
2023/08/05 12:09:24;;;;;;;3.80;1.63;;;21.30;99.90;;;;;;5065682;28;20519;-54
2023/08/05 12:11:57;;;;;;;4.17;2.10;;;21.40;98.30;;;;;;5070730;28;20483;-55
2023/08/05 12:14:25;;;;;;;7.87;1.77;;;21.50;92.30;;;;;;5061150;28;20453;-52
2023/08/05 12:16:58;;;;;;;5.60;2.17;;;21.60;97.60;;;;;;5070113;28;20473;-53
2023/08/05 12:19:26;;;;;;;3.37;2.17;;;21.60;92.60;;;;;;5066617;28;21007;-53
2023/08/05 12:21:52;;;;;;;3.40;2.10;;;21.60;98.40;;;;;;5060489;28;20565;-53
2023/08/05 12:24:19;;;;;;;5.57;2.37;;;21.50;97.70;;;;;;5064746;28;20501;-53
2023/08/05 12:26:45;;;;;;;1.97;1.70;;;21.40;99.90;;;;;;5065419;28;20508;-54
2023/08/05 12:29:13;;;;;;;3.73;2.20;;;21.40;98.30;;;;;;5066461;28;20488;-53
2023/08/05 12:31:40;;;;;;;4.27;1.97;;;21.30;96.60;;;;;;5062281;28;20457;-53
2023/08/05 12:34:06;;;;;;;4.73;2.37;;;21.10;90.40;;;;;;5069171;28;20468;-54
2023/08/05 12:36:33;;;;;;;6.77;2.33;;;21.10;79.70;;;;;;5067672;28;21244;-52
2023/08/05 12:39:01;;;;;;;6.47;2.33;;;21.00;84.40;;;;;;5070436;28;20496;-54
2023/08/05 12:41:27;;;;;;;3.53;2.50;;;21.00;69.40;;;;;;5069281;28;20454;-54
2023/08/05 12:43:54;;;;;;;3.57;2.20;;;20.90;68.80;;;;;;5062961;28;20505;-55
2023/08/05 12:46:22;;;;;;;3.93;2.70;;;20.90;61.30;;;;;;5066706;28;20546;-52
2023/08/05 12:48:48;;;;;;;5.67;2.20;;;20.80;63.40;;;;;;5070475;28;20499;-55